sensor_id;sensor_type;location;lat;lon;timestamp;P1;durP1;ratioP1;P2;durP2;ratioP2
75316;SDS011;63913;51.492;10.368;2023-07-29T00:00:56;0.90;;;0.90;;
75316;SDS011;63913;51.492;10.368;2023-07-29T00:03:22;1.27;;;1.17;;
75316;SDS011;63913;51.492;10.368;2023-07-29T00:05:47;1.88;;;1.20;;
75316;SDS011;63913;51.492;10.368;2023-07-29T00:08:13;1.38;;;1.20;;
75316;SDS011;63913;51.492;10.368;2023-07-29T00:10:38;2.10;;;1.02;;
75316;SDS011;63913;51.492;10.368;2023-07-29T00:13:04;2.17;;;1.00;;
75316;SDS011;63913;51.492;10.368;2023-07-29T00:15:31;1.52;;;1.05;;
75316;SDS011;63913;51.492;10.368;2023-07-29T00:17:57;1.33;;;1.23;;
75316;SDS011;63913;51.492;10.368;2023-07-29T00:20:22;2.88;;;1.23;;
75316;SDS011;63913;51.492;10.368;2023-07-29T00:22:47;1.40;;;1.00;;
75316;SDS011;63913;51.492;10.368;2023-07-29T00:25:15;2.15;;;1.35;;
75316;SDS011;63913;51.492;10.368;2023-07-29T00:27:41;0.95;;;0.93;;
75316;SDS011;63913;51.492;10.368;2023-07-29T00:30:07;1.95;;;1.40;;
75316;SDS011;63913;51.492;10.368;2023-07-29T00:32:36;1.17;;;1.08;;
75316;SDS011;63913;51.492;10.368;2023-07-29T00:35:02;1.42;;;1.10;;
75316;SDS011;63913;51.492;10.368;2023-07-29T00:37:29;1.00;;;1.00;;
75316;SDS011;63913;51.492;10.368;2023-07-29T00:39:55;1.50;;;1.00;;
75316;SDS011;63913;51.492;10.368;2023-07-29T00:42:21;1.30;;;1.20;;
75316;SDS011;63913;51.492;10.368;2023-07-29T00:44:46;1.20;;;1.10;;
75316;SDS011;63913;51.492;10.368;2023-07-29T00:47:12;1.15;;;1.00;;
75316;SDS011;63913;51.492;10.368;2023-07-29T00:49:40;1.52;;;1.10;;
75316;SDS011;63913;51.492;10.368;2023-07-29T00:52:07;3.30;;;1.08;;
75316;SDS011;63913;51.492;10.368;2023-07-29T00:54:32;1.63;;;1.30;;
75316;SDS011;63913;51.492;10.368;2023-07-29T00:56:58;2.03;;;1.02;;
75316;SDS011;63913;51.492;10.368;2023-07-29T00:59:23;1.73;;;1.23;;
75316;SDS011;63913;51.492;10.368;2023-07-29T01:01:49;1.50;;;1.00;;
75316;SDS011;63913;51.492;10.368;2023-07-29T01:04:14;1.20;;;1.10;;
75316;SDS011;63913;51.492;10.368;2023-07-29T01:09:20;1.52;;;1.20;;
75316;SDS011;63913;51.492;10.368;2023-07-29T01:11:53;1.17;;;1.10;;
75316;SDS011;63913;51.492;10.368;2023-07-29T01:17:00;1.70;;;1.20;;
75316;SDS011;63913;51.492;10.368;2023-07-29T01:22:33;1.10;;;1.00;;
75316;SDS011;63913;51.492;10.368;2023-07-29T01:24:59;0.90;;;0.90;;
75316;SDS011;63913;51.492;10.368;2023-07-29T01:27:25;1.33;;;1.13;;
75316;SDS011;63913;51.492;10.368;2023-07-29T01:29:51;2.05;;;1.30;;
75316;SDS011;63913;51.492;10.368;2023-07-29T01:32:19;2.75;;;1.10;;
75316;SDS011;63913;51.492;10.368;2023-07-29T01:34:56;2.00;;;1.27;;
75316;SDS011;63913;51.492;10.368;2023-07-29T01:37:29;2.70;;;1.10;;
75316;SDS011;63913;51.492;10.368;2023-07-29T01:39:57;1.90;;;1.02;;
75316;SDS011;63913;51.492;10.368;2023-07-29T01:42:25;1.55;;;1.20;;
75316;SDS011;63913;51.492;10.368;2023-07-29T01:44:51;1.40;;;1.30;;
75316;SDS011;63913;51.492;10.368;2023-07-29T01:47:17;2.40;;;1.27;;
75316;SDS011;63913;51.492;10.368;2023-07-29T01:49:43;1.40;;;1.30;;
75316;SDS011;63913;51.492;10.368;2023-07-29T01:52:08;1.63;;;1.20;;
75316;SDS011;63913;51.492;10.368;2023-07-29T01:54:34;1.20;;;1.10;;
75316;SDS011;63913;51.492;10.368;2023-07-29T01:56:59;1.98;;;1.00;;
75316;SDS011;63913;51.492;10.368;2023-07-29T01:59:25;1.42;;;1.33;;
75316;SDS011;63913;51.492;10.368;2023-07-29T02:01:50;1.15;;;1.10;;
75316;SDS011;63913;51.492;10.368;2023-07-29T02:04:17;1.20;;;1.10;;
75316;SDS011;63913;51.492;10.368;2023-07-29T02:06:42;2.42;;;2.20;;
75316;SDS011;63913;51.492;10.368;2023-07-29T02:09:08;1.40;;;1.30;;
75316;SDS011;63913;51.492;10.368;2023-07-29T02:11:33;1.17;;;1.10;;
75316;SDS011;63913;51.492;10.368;2023-07-29T02:13:59;1.17;;;1.08;;
75316;SDS011;63913;51.492;10.368;2023-07-29T02:16:24;1.40;;;1.30;;
75316;SDS011;63913;51.492;10.368;2023-07-29T02:18:49;1.40;;;1.30;;
75316;SDS011;63913;51.492;10.368;2023-07-29T02:21:15;0.98;;;0.93;;
75316;SDS011;63913;51.492;10.368;2023-07-29T02:23:41;4.70;;;1.30;;
75316;SDS011;63913;51.492;10.368;2023-07-29T02:26:06;1.35;;;1.20;;
75316;SDS011;63913;51.492;10.368;2023-07-29T02:28:32;2.95;;;1.25;;
75316;SDS011;63913;51.492;10.368;2023-07-29T02:31:17;1.73;;;1.02;;
75316;SDS011;63913;51.492;10.368;2023-07-29T02:33:46;1.42;;;1.13;;
75316;SDS011;63913;51.492;10.368;2023-07-29T02:36:12;1.35;;;1.25;;
75316;SDS011;63913;51.492;10.368;2023-07-29T02:38:38;1.83;;;1.35;;
75316;SDS011;63913;51.492;10.368;2023-07-29T02:41:05;1.33;;;1.20;;
75316;SDS011;63913;51.492;10.368;2023-07-29T02:43:30;2.95;;;1.30;;
75316;SDS011;63913;51.492;10.368;2023-07-29T02:45:55;1.67;;;1.40;;
75316;SDS011;63913;51.492;10.368;2023-07-29T02:48:21;1.50;;;1.40;;
75316;SDS011;63913;51.492;10.368;2023-07-29T02:50:46;1.25;;;1.15;;
75316;SDS011;63913;51.492;10.368;2023-07-29T02:53:12;1.67;;;1.50;;
75316;SDS011;63913;51.492;10.368;2023-07-29T02:55:41;1.60;;;1.50;;
75316;SDS011;63913;51.492;10.368;2023-07-29T02:58:07;1.50;;;1.40;;
75316;SDS011;63913;51.492;10.368;2023-07-29T03:00:33;1.50;;;1.38;;
75316;SDS011;63913;51.492;10.368;2023-07-29T03:02:59;1.48;;;1.38;;
75316;SDS011;63913;51.492;10.368;2023-07-29T03:05:27;2.88;;;1.30;;
75316;SDS011;63913;51.492;10.368;2023-07-29T03:07:53;2.70;;;1.40;;
75316;SDS011;63913;51.492;10.368;2023-07-29T03:10:18;1.38;;;1.30;;
75316;SDS011;63913;51.492;10.368;2023-07-29T03:12:43;3.05;;;1.40;;
75316;SDS011;63913;51.492;10.368;2023-07-29T03:15:09;1.20;;;1.10;;
75316;SDS011;63913;51.492;10.368;2023-07-29T03:17:34;1.40;;;1.30;;
75316;SDS011;63913;51.492;10.368;2023-07-29T03:20:00;2.80;;;1.35;;
75316;SDS011;63913;51.492;10.368;2023-07-29T03:22:25;3.50;;;1.45;;
75316;SDS011;63913;51.492;10.368;2023-07-29T03:24:51;1.48;;;1.27;;
75316;SDS011;63913;51.492;10.368;2023-07-29T03:27:16;1.55;;;1.45;;
75316;SDS011;63913;51.492;10.368;2023-07-29T03:29:42;2.85;;;1.40;;
75316;SDS011;63913;51.492;10.368;2023-07-29T03:32:07;1.33;;;1.20;;
75316;SDS011;63913;51.492;10.368;2023-07-29T03:34:33;1.40;;;1.30;;
75316;SDS011;63913;51.492;10.368;2023-07-29T03:36:59;1.83;;;1.20;;
75316;SDS011;63913;51.492;10.368;2023-07-29T03:39:26;1.63;;;1.52;;
75316;SDS011;63913;51.492;10.368;2023-07-29T03:41:51;1.45;;;1.20;;
75316;SDS011;63913;51.492;10.368;2023-07-29T03:44:17;1.30;;;1.20;;
75316;SDS011;63913;51.492;10.368;2023-07-29T03:46:43;1.27;;;1.17;;
75316;SDS011;63913;51.492;10.368;2023-07-29T03:49:10;1.33;;;1.20;;
75316;SDS011;63913;51.492;10.368;2023-07-29T03:51:35;1.45;;;1.35;;
75316;SDS011;63913;51.492;10.368;2023-07-29T03:54:01;1.58;;;1.48;;
75316;SDS011;63913;51.492;10.368;2023-07-29T03:56:26;1.38;;;1.27;;
75316;SDS011;63913;51.492;10.368;2023-07-29T03:58:52;2.53;;;1.92;;
75316;SDS011;63913;51.492;10.368;2023-07-29T04:01:18;1.40;;;1.30;;
75316;SDS011;63913;51.492;10.368;2023-07-29T04:03:45;2.03;;;1.40;;
75316;SDS011;63913;51.492;10.368;2023-07-29T04:06:11;1.58;;;1.20;;
75316;SDS011;63913;51.492;10.368;2023-07-29T04:08:37;1.30;;;1.20;;
75316;SDS011;63913;51.492;10.368;2023-07-29T04:11:02;1.85;;;1.13;;
75316;SDS011;63913;51.492;10.368;2023-07-29T04:13:28;1.75;;;1.52;;
75316;SDS011;63913;51.492;10.368;2023-07-29T04:15:53;1.65;;;1.35;;
75316;SDS011;63913;51.492;10.368;2023-07-29T04:18:19;1.98;;;1.58;;
75316;SDS011;63913;51.492;10.368;2023-07-29T04:20:46;1.95;;;1.75;;
75316;SDS011;63913;51.492;10.368;2023-07-29T04:23:11;1.60;;;1.50;;
75316;SDS011;63913;51.492;10.368;2023-07-29T04:25:36;1.70;;;1.52;;
75316;SDS011;63913;51.492;10.368;2023-07-29T04:28:02;1.63;;;1.52;;
75316;SDS011;63913;51.492;10.368;2023-07-29T04:30:28;2.58;;;2.00;;
75316;SDS011;63913;51.492;10.368;2023-07-29T04:32:54;2.90;;;1.90;;
75316;SDS011;63913;51.492;10.368;2023-07-29T04:35:20;2.00;;;1.80;;
75316;SDS011;63913;51.492;10.368;2023-07-29T04:37:46;1.60;;;1.50;;
75316;SDS011;63913;51.492;10.368;2023-07-29T04:40:13;1.60;;;1.50;;
75316;SDS011;63913;51.492;10.368;2023-07-29T04:42:38;2.30;;;2.10;;
75316;SDS011;63913;51.492;10.368;2023-07-29T04:45:04;1.83;;;1.63;;
75316;SDS011;63913;51.492;10.368;2023-07-29T04:47:31;1.88;;;1.70;;
75316;SDS011;63913;51.492;10.368;2023-07-29T04:49:56;1.90;;;1.70;;
75316;SDS011;63913;51.492;10.368;2023-07-29T04:52:22;1.63;;;1.52;;
75316;SDS011;63913;51.492;10.368;2023-07-29T04:54:47;2.25;;;1.70;;
75316;SDS011;63913;51.492;10.368;2023-07-29T04:57:13;2.60;;;1.80;;
75316;SDS011;63913;51.492;10.368;2023-07-29T04:59:38;1.70;;;1.60;;
75316;SDS011;63913;51.492;10.368;2023-07-29T05:02:04;1.83;;;1.73;;
75316;SDS011;63913;51.492;10.368;2023-07-29T05:04:29;2.40;;;1.63;;
75316;SDS011;63913;51.492;10.368;2023-07-29T05:06:54;2.03;;;1.60;;
75316;SDS011;63913;51.492;10.368;2023-07-29T05:09:20;4.75;;;1.90;;
75316;SDS011;63913;51.492;10.368;2023-07-29T05:11:47;7.25;;;2.35;;
75316;SDS011;63913;51.492;10.368;2023-07-29T05:14:14;1.77;;;1.67;;
75316;SDS011;63913;51.492;10.368;2023-07-29T05:16:41;3.15;;;1.88;;
75316;SDS011;63913;51.492;10.368;2023-07-29T05:19:07;2.08;;;1.73;;
75316;SDS011;63913;51.492;10.368;2023-07-29T05:21:32;2.70;;;1.80;;
75316;SDS011;63913;51.492;10.368;2023-07-29T05:23:58;3.17;;;1.70;;
75316;SDS011;63913;51.492;10.368;2023-07-29T05:26:24;1.88;;;1.70;;
75316;SDS011;63913;51.492;10.368;2023-07-29T05:28:49;3.40;;;1.40;;
75316;SDS011;63913;51.492;10.368;2023-07-29T05:31:14;2.33;;;1.70;;
75316;SDS011;63913;51.492;10.368;2023-07-29T05:33:40;1.83;;;1.55;;
75316;SDS011;63913;51.492;10.368;2023-07-29T05:36:06;4.40;;;1.80;;
75316;SDS011;63913;51.492;10.368;2023-07-29T05:38:31;1.98;;;1.70;;
75316;SDS011;63913;51.492;10.368;2023-07-29T05:40:57;5.22;;;2.10;;
75316;SDS011;63913;51.492;10.368;2023-07-29T05:43:23;3.00;;;1.88;;
75316;SDS011;63913;51.492;10.368;2023-07-29T05:45:49;1.58;;;1.48;;
75316;SDS011;63913;51.492;10.368;2023-07-29T05:48:16;2.05;;;1.88;;
75316;SDS011;63913;51.492;10.368;2023-07-29T05:50:43;1.90;;;1.80;;
75316;SDS011;63913;51.492;10.368;2023-07-29T05:53:09;2.00;;;1.80;;
75316;SDS011;63913;51.492;10.368;2023-07-29T05:55:34;3.28;;;2.05;;
75316;SDS011;63913;51.492;10.368;2023-07-29T05:57:59;2.58;;;1.80;;
75316;SDS011;63913;51.492;10.368;2023-07-29T06:00:25;2.10;;;1.90;;
75316;SDS011;63913;51.492;10.368;2023-07-29T06:02:50;2.30;;;2.05;;
75316;SDS011;63913;51.492;10.368;2023-07-29T06:05:19;2.30;;;2.10;;
75316;SDS011;63913;51.492;10.368;2023-07-29T06:07:45;2.40;;;2.20;;
75316;SDS011;63913;51.492;10.368;2023-07-29T06:10:13;3.88;;;2.22;;
75316;SDS011;63913;51.492;10.368;2023-07-29T06:12:42;2.58;;;2.38;;
75316;SDS011;63913;51.492;10.368;2023-07-29T06:15:08;2.90;;;2.13;;
75316;SDS011;63913;51.492;10.368;2023-07-29T06:17:34;2.35;;;2.15;;
75316;SDS011;63913;51.492;10.368;2023-07-29T06:19:59;2.30;;;2.10;;
75316;SDS011;63913;51.492;10.368;2023-07-29T06:22:25;7.95;;;2.92;;
75316;SDS011;63913;51.492;10.368;2023-07-29T06:24:50;2.00;;;1.90;;
75316;SDS011;63913;51.492;10.368;2023-07-29T06:27:16;3.10;;;2.20;;
75316;SDS011;63913;51.492;10.368;2023-07-29T06:29:41;3.25;;;2.10;;
75316;SDS011;63913;51.492;10.368;2023-07-29T06:32:06;2.40;;;2.20;;
75316;SDS011;63913;51.492;10.368;2023-07-29T06:34:32;3.92;;;2.20;;
75316;SDS011;63913;51.492;10.368;2023-07-29T06:36:57;2.72;;;1.98;;
75316;SDS011;63913;51.492;10.368;2023-07-29T06:39:23;2.58;;;1.88;;
75316;SDS011;63913;51.492;10.368;2023-07-29T06:41:48;2.97;;;2.10;;
75316;SDS011;63913;51.492;10.368;2023-07-29T06:44:16;2.42;;;2.22;;
75316;SDS011;63913;51.492;10.368;2023-07-29T06:46:42;3.22;;;2.10;;
75316;SDS011;63913;51.492;10.368;2023-07-29T06:49:07;2.47;;;2.00;;
75316;SDS011;63913;51.492;10.368;2023-07-29T06:51:32;2.38;;;2.17;;
75316;SDS011;63913;51.492;10.368;2023-07-29T06:54:00;2.30;;;2.10;;
75316;SDS011;63913;51.492;10.368;2023-07-29T06:56:26;2.80;;;2.05;;
75316;SDS011;63913;51.492;10.368;2023-07-29T06:58:51;1.85;;;1.75;;
75316;SDS011;63913;51.492;10.368;2023-07-29T07:01:17;2.58;;;1.90;;
75316;SDS011;63913;51.492;10.368;2023-07-29T07:03:42;2.38;;;2.17;;
75316;SDS011;63913;51.492;10.368;2023-07-29T07:06:08;2.40;;;1.80;;
75316;SDS011;63913;51.492;10.368;2023-07-29T07:08:33;2.20;;;2.00;;
75316;SDS011;63913;51.492;10.368;2023-07-29T07:10:58;3.45;;;2.53;;
75316;SDS011;63913;51.492;10.368;2023-07-29T07:13:24;2.72;;;1.90;;
75316;SDS011;63913;51.492;10.368;2023-07-29T07:15:49;2.30;;;1.80;;
75316;SDS011;63913;51.492;10.368;2023-07-29T07:18:15;2.22;;;1.98;;
75316;SDS011;63913;51.492;10.368;2023-07-29T07:20:40;3.50;;;2.00;;
75316;SDS011;63913;51.492;10.368;2023-07-29T07:23:06;1.88;;;1.77;;
75316;SDS011;63913;51.492;10.368;2023-07-29T07:25:35;2.05;;;1.92;;
75316;SDS011;63913;51.492;10.368;2023-07-29T07:28:01;1.83;;;1.70;;
75316;SDS011;63913;51.492;10.368;2023-07-29T07:30:26;1.77;;;1.67;;
75316;SDS011;63913;51.492;10.368;2023-07-29T07:32:52;2.10;;;2.00;;
75316;SDS011;63913;51.492;10.368;2023-07-29T07:35:17;2.45;;;1.83;;
75316;SDS011;63913;51.492;10.368;2023-07-29T07:37:44;1.75;;;1.52;;
75316;SDS011;63913;51.492;10.368;2023-07-29T07:40:10;2.00;;;1.75;;
75316;SDS011;63913;51.492;10.368;2023-07-29T07:42:35;1.98;;;1.75;;
75316;SDS011;63913;51.492;10.368;2023-07-29T07:45:01;3.70;;;1.85;;
75316;SDS011;63913;51.492;10.368;2023-07-29T07:47:26;2.03;;;1.90;;
75316;SDS011;63913;51.492;10.368;2023-07-29T07:49:51;2.03;;;1.83;;
75316;SDS011;63913;51.492;10.368;2023-07-29T07:52:18;4.07;;;2.33;;
75316;SDS011;63913;51.492;10.368;2023-07-29T07:54:43;4.43;;;4.03;;
75316;SDS011;63913;51.492;10.368;2023-07-29T07:57:09;2.53;;;2.30;;
75316;SDS011;63913;51.492;10.368;2023-07-29T07:59:34;2.65;;;1.80;;
75316;SDS011;63913;51.492;10.368;2023-07-29T08:01:59;1.83;;;1.70;;
75316;SDS011;63913;51.492;10.368;2023-07-29T08:04:25;1.90;;;1.70;;
75316;SDS011;63913;51.492;10.368;2023-07-29T08:06:50;1.75;;;1.65;;
75316;SDS011;63913;51.492;10.368;2023-07-29T08:09:15;1.73;;;1.63;;
75316;SDS011;63913;51.492;10.368;2023-07-29T08:11:41;2.10;;;1.90;;
75316;SDS011;63913;51.492;10.368;2023-07-29T08:14:06;1.67;;;1.52;;
75316;SDS011;63913;51.492;10.368;2023-07-29T08:16:31;2.97;;;1.60;;
75316;SDS011;63913;51.492;10.368;2023-07-29T08:18:57;1.70;;;1.60;;
75316;SDS011;63913;51.492;10.368;2023-07-29T08:21:22;2.38;;;1.90;;
75316;SDS011;63913;51.492;10.368;2023-07-29T08:23:48;2.50;;;2.28;;
75316;SDS011;63913;51.492;10.368;2023-07-29T08:26:14;1.92;;;1.70;;
75316;SDS011;63913;51.492;10.368;2023-07-29T08:28:39;1.98;;;1.80;;
75316;SDS011;63913;51.492;10.368;2023-07-29T08:31:05;4.07;;;2.20;;
75316;SDS011;63913;51.492;10.368;2023-07-29T08:33:31;2.60;;;2.08;;
75316;SDS011;63913;51.492;10.368;2023-07-29T08:35:58;1.90;;;1.80;;
75316;SDS011;63913;51.492;10.368;2023-07-29T08:38:24;2.50;;;1.70;;
75316;SDS011;63913;51.492;10.368;2023-07-29T08:43:34;1.95;;;1.80;;
75316;SDS011;63913;51.492;10.368;2023-07-29T08:46:03;1.45;;;1.30;;
75316;SDS011;63913;51.492;10.368;2023-07-29T08:48:31;1.83;;;1.50;;
75316;SDS011;63913;51.492;10.368;2023-07-29T08:51:01;1.75;;;1.55;;
75316;SDS011;63913;51.492;10.368;2023-07-29T08:53:28;1.95;;;1.48;;
75316;SDS011;63913;51.492;10.368;2023-07-29T08:55:54;1.75;;;1.65;;
75316;SDS011;63913;51.492;10.368;2023-07-29T08:58:21;1.70;;;1.60;;
75316;SDS011;63913;51.492;10.368;2023-07-29T09:00:47;1.92;;;1.65;;
75316;SDS011;63913;51.492;10.368;2023-07-29T09:03:14;2.17;;;1.40;;
75316;SDS011;63913;51.492;10.368;2023-07-29T09:05:40;9.88;;;4.97;;
75316;SDS011;63913;51.492;10.368;2023-07-29T09:08:05;1.88;;;1.67;;
75316;SDS011;63913;51.492;10.368;2023-07-29T09:10:35;2.20;;;1.55;;
75316;SDS011;63913;51.492;10.368;2023-07-29T09:13:05;1.38;;;1.27;;
75316;SDS011;63913;51.492;10.368;2023-07-29T09:15:31;1.67;;;1.58;;
75316;SDS011;63913;51.492;10.368;2023-07-29T09:17:58;2.00;;;1.80;;
75316;SDS011;63913;51.492;10.368;2023-07-29T09:20:25;5.10;;;1.90;;
75316;SDS011;63913;51.492;10.368;2023-07-29T09:22:52;2.22;;;2.03;;
75316;SDS011;63913;51.492;10.368;2023-07-29T09:25:23;2.47;;;1.60;;
75316;SDS011;63913;51.492;10.368;2023-07-29T09:27:50;1.65;;;1.52;;
75316;SDS011;63913;51.492;10.368;2023-07-29T09:30:15;1.52;;;1.42;;
75316;SDS011;63913;51.492;10.368;2023-07-29T09:32:41;1.75;;;1.50;;
75316;SDS011;63913;51.492;10.368;2023-07-29T09:35:10;2.35;;;1.63;;
75316;SDS011;63913;51.492;10.368;2023-07-29T09:37:37;2.28;;;1.60;;
75316;SDS011;63913;51.492;10.368;2023-07-29T09:40:03;1.60;;;1.50;;
75316;SDS011;63913;51.492;10.368;2023-07-29T09:42:29;2.25;;;1.60;;
75316;SDS011;63913;51.492;10.368;2023-07-29T09:44:54;1.70;;;1.60;;
75316;SDS011;63913;51.492;10.368;2023-07-29T09:49:46;1.90;;;1.65;;
75316;SDS011;63913;51.492;10.368;2023-07-29T09:52:14;1.90;;;1.70;;
75316;SDS011;63913;51.492;10.368;2023-07-29T09:54:41;2.08;;;1.60;;
75316;SDS011;63913;51.492;10.368;2023-07-29T09:57:08;1.92;;;1.73;;
75316;SDS011;63913;51.492;10.368;2023-07-29T09:59:34;2.15;;;1.40;;
75316;SDS011;63913;51.492;10.368;2023-07-29T10:02:00;1.80;;;1.70;;
75316;SDS011;63913;51.492;10.368;2023-07-29T10:04:25;2.40;;;1.70;;
75316;SDS011;63913;51.492;10.368;2023-07-29T10:06:51;2.47;;;1.60;;
75316;SDS011;63913;51.492;10.368;2023-07-29T10:09:17;1.90;;;1.40;;
75316;SDS011;63913;51.492;10.368;2023-07-29T10:11:45;2.30;;;1.67;;
75316;SDS011;63913;51.492;10.368;2023-07-29T10:14:11;1.55;;;1.45;;
75316;SDS011;63913;51.492;10.368;2023-07-29T10:16:37;1.50;;;1.40;;
75316;SDS011;63913;51.492;10.368;2023-07-29T10:19:03;1.60;;;1.50;;
75316;SDS011;63913;51.492;10.368;2023-07-29T10:21:29;1.73;;;1.50;;
75316;SDS011;63913;51.492;10.368;2023-07-29T10:23:56;1.90;;;1.60;;
75316;SDS011;63913;51.492;10.368;2023-07-29T10:26:25;2.42;;;1.77;;
75316;SDS011;63913;51.492;10.368;2023-07-29T10:28:53;2.25;;;1.70;;
75316;SDS011;63913;51.492;10.368;2023-07-29T10:31:21;1.95;;;1.70;;
75316;SDS011;63913;51.492;10.368;2023-07-29T10:33:48;1.65;;;1.55;;
75316;SDS011;63913;51.492;10.368;2023-07-29T10:36:14;1.63;;;1.52;;
75316;SDS011;63913;51.492;10.368;2023-07-29T10:38:40;2.50;;;1.80;;
75316;SDS011;63913;51.492;10.368;2023-07-29T10:41:07;1.98;;;1.38;;
75316;SDS011;63913;51.492;10.368;2023-07-29T10:43:33;2.20;;;1.40;;
75316;SDS011;63913;51.492;10.368;2023-07-29T10:46:22;2.15;;;1.80;;
75316;SDS011;63913;51.492;10.368;2023-07-29T10:53:55;2.00;;;1.65;;
75316;SDS011;63913;51.492;10.368;2023-07-29T10:56:35;3.38;;;1.70;;
75316;SDS011;63913;51.492;10.368;2023-07-29T11:01:37;1.50;;;1.40;;
75316;SDS011;63913;51.492;10.368;2023-07-29T11:09:45;1.80;;;1.70;;
75316;SDS011;63913;51.492;10.368;2023-07-29T11:17:48;2.30;;;1.52;;
75316;SDS011;63913;51.492;10.368;2023-07-29T11:20:15;2.35;;;1.90;;
75316;SDS011;63913;51.492;10.368;2023-07-29T11:22:42;2.28;;;1.80;;
75316;SDS011;63913;51.492;10.368;2023-07-29T11:25:09;1.73;;;1.63;;
75316;SDS011;63913;51.492;10.368;2023-07-29T11:27:39;1.70;;;1.60;;
75316;SDS011;63913;51.492;10.368;2023-07-29T11:30:06;1.92;;;1.73;;
75316;SDS011;63913;51.492;10.368;2023-07-29T11:32:34;1.90;;;1.70;;
75316;SDS011;63913;51.492;10.368;2023-07-29T11:35:01;1.70;;;1.60;;
75316;SDS011;63913;51.492;10.368;2023-07-29T11:37:28;1.67;;;1.58;;
75316;SDS011;63913;51.492;10.368;2023-07-29T11:39:53;1.77;;;1.67;;
75316;SDS011;63913;51.492;10.368;2023-07-29T11:42:18;2.03;;;1.83;;
75316;SDS011;63913;51.492;10.368;2023-07-29T11:44:45;1.98;;;1.75;;
75316;SDS011;63913;51.492;10.368;2023-07-29T11:47:11;3.97;;;2.30;;
75316;SDS011;63913;51.492;10.368;2023-07-29T11:49:38;3.05;;;1.83;;
75316;SDS011;63913;51.492;10.368;2023-07-29T11:52:08;2.25;;;2.13;;
75316;SDS011;63913;51.492;10.368;2023-07-29T11:54:38;1.60;;;1.50;;
75316;SDS011;63913;51.492;10.368;2023-07-29T11:57:07;2.13;;;1.58;;
75316;SDS011;63913;51.492;10.368;2023-07-29T11:59:34;2.40;;;1.70;;
75316;SDS011;63913;51.492;10.368;2023-07-29T12:02:03;1.98;;;1.73;;
75316;SDS011;63913;51.492;10.368;2023-07-29T12:04:32;1.60;;;1.50;;
75316;SDS011;63913;51.492;10.368;2023-07-29T12:06:59;1.73;;;1.60;;
75316;SDS011;63913;51.492;10.368;2023-07-29T12:09:25;1.67;;;1.58;;
75316;SDS011;63913;51.492;10.368;2023-07-29T12:11:52;7.53;;;2.30;;
75316;SDS011;63913;51.492;10.368;2023-07-29T12:14:18;5.63;;;1.80;;
75316;SDS011;63913;51.492;10.368;2023-07-29T12:16:43;1.98;;;1.80;;
75316;SDS011;63913;51.492;10.368;2023-07-29T12:19:12;1.80;;;1.70;;
75316;SDS011;63913;51.492;10.368;2023-07-29T12:21:38;1.70;;;1.60;;
75316;SDS011;63913;51.492;10.368;2023-07-29T12:24:06;2.70;;;1.80;;
75316;SDS011;63913;51.492;10.368;2023-07-29T12:26:32;2.08;;;1.90;;
75316;SDS011;63913;51.492;10.368;2023-07-29T12:28:58;2.55;;;1.67;;
75316;SDS011;63913;51.492;10.368;2023-07-29T12:31:30;2.53;;;2.08;;
75316;SDS011;63913;51.492;10.368;2023-07-29T12:33:57;2.45;;;2.25;;
75316;SDS011;63913;51.492;10.368;2023-07-29T12:36:26;1.95;;;1.80;;
75316;SDS011;63913;51.492;10.368;2023-07-29T12:39:05;2.15;;;1.95;;
75316;SDS011;63913;51.492;10.368;2023-07-29T12:41:30;2.00;;;1.80;;
75316;SDS011;63913;51.492;10.368;2023-07-29T12:43:55;2.13;;;1.92;;
75316;SDS011;63913;51.492;10.368;2023-07-29T12:46:21;1.80;;;1.70;;
75316;SDS011;63913;51.492;10.368;2023-07-29T12:48:46;2.00;;;1.77;;
75316;SDS011;63913;51.492;10.368;2023-07-29T12:51:12;2.75;;;1.90;;
75316;SDS011;63913;51.492;10.368;2023-07-29T12:53:37;2.30;;;2.10;;
75316;SDS011;63913;51.492;10.368;2023-07-29T12:56:03;2.80;;;2.03;;
75316;SDS011;63913;51.492;10.368;2023-07-29T12:58:28;2.40;;;2.15;;
75316;SDS011;63913;51.492;10.368;2023-07-29T13:00:54;3.20;;;2.40;;
75316;SDS011;63913;51.492;10.368;2023-07-29T13:03:19;3.42;;;2.50;;
75316;SDS011;63913;51.492;10.368;2023-07-29T13:05:45;8.20;;;4.53;;
75316;SDS011;63913;51.492;10.368;2023-07-29T13:08:10;5.85;;;3.15;;
75316;SDS011;63913;51.492;10.368;2023-07-29T13:10:35;2.85;;;2.30;;
75316;SDS011;63913;51.492;10.368;2023-07-29T13:13:01;4.32;;;2.67;;
75316;SDS011;63913;51.492;10.368;2023-07-29T13:15:29;2.67;;;2.22;;
75316;SDS011;63913;51.492;10.368;2023-07-29T13:17:54;3.47;;;2.00;;
75316;SDS011;63913;51.492;10.368;2023-07-29T13:20:22;2.85;;;1.98;;
75316;SDS011;63913;51.492;10.368;2023-07-29T13:22:47;2.55;;;2.10;;
75316;SDS011;63913;51.492;10.368;2023-07-29T13:25:13;3.67;;;2.10;;
75316;SDS011;63913;51.492;10.368;2023-07-29T13:27:38;2.75;;;1.80;;
75316;SDS011;63913;51.492;10.368;2023-07-29T13:30:04;9.73;;;2.40;;
75316;SDS011;63913;51.492;10.368;2023-07-29T13:32:30;2.65;;;2.10;;
75316;SDS011;63913;51.492;10.368;2023-07-29T13:34:55;6.43;;;2.33;;
75316;SDS011;63913;51.492;10.368;2023-07-29T13:37:21;5.10;;;2.00;;
75316;SDS011;63913;51.492;10.368;2023-07-29T13:39:46;3.53;;;2.03;;
75316;SDS011;63913;51.492;10.368;2023-07-29T13:42:11;5.72;;;1.80;;
75316;SDS011;63913;51.492;10.368;2023-07-29T13:44:37;3.45;;;2.40;;
75316;SDS011;63913;51.492;10.368;2023-07-29T13:47:02;1.95;;;1.83;;
75316;SDS011;63913;51.492;10.368;2023-07-29T13:49:28;2.28;;;1.80;;
75316;SDS011;63913;51.492;10.368;2023-07-29T13:51:53;4.95;;;2.40;;
75316;SDS011;63913;51.492;10.368;2023-07-29T13:54:18;4.15;;;1.85;;
75316;SDS011;63913;51.492;10.368;2023-07-29T13:56:44;1.50;;;1.40;;
75316;SDS011;63913;51.492;10.368;2023-07-29T13:59:09;2.72;;;1.60;;
75316;SDS011;63913;51.492;10.368;2023-07-29T14:01:35;2.05;;;1.67;;
75316;SDS011;63913;51.492;10.368;2023-07-29T14:04:00;2.88;;;1.38;;
75316;SDS011;63913;51.492;10.368;2023-07-29T14:06:26;1.55;;;1.38;;
75316;SDS011;63913;51.492;10.368;2023-07-29T14:08:51;1.30;;;1.20;;
75316;SDS011;63913;51.492;10.368;2023-07-29T14:11:17;2.30;;;1.50;;
75316;SDS011;63913;51.492;10.368;2023-07-29T14:13:42;1.75;;;1.65;;
75316;SDS011;63913;51.492;10.368;2023-07-29T14:16:07;2.42;;;1.90;;
75316;SDS011;63913;51.492;10.368;2023-07-29T14:18:33;2.15;;;1.52;;
75316;SDS011;63913;51.492;10.368;2023-07-29T14:20:58;1.73;;;1.45;;
75316;SDS011;63913;51.492;10.368;2023-07-29T14:23:23;2.17;;;1.80;;
75316;SDS011;63913;51.492;10.368;2023-07-29T14:25:50;3.00;;;1.35;;
75316;SDS011;63913;51.492;10.368;2023-07-29T14:28:16;2.88;;;1.35;;
75316;SDS011;63913;51.492;10.368;2023-07-29T14:30:42;1.45;;;1.35;;
75316;SDS011;63913;51.492;10.368;2023-07-29T14:33:07;2.05;;;1.50;;
75316;SDS011;63913;51.492;10.368;2023-07-29T14:35:33;2.63;;;1.42;;
75316;SDS011;63913;51.492;10.368;2023-07-29T14:37:58;1.60;;;1.50;;
75316;SDS011;63913;51.492;10.368;2023-07-29T14:40:24;2.05;;;1.50;;
75316;SDS011;63913;51.492;10.368;2023-07-29T14:42:49;1.52;;;1.40;;
75316;SDS011;63913;51.492;10.368;2023-07-29T14:45:15;1.40;;;1.30;;
75316;SDS011;63913;51.492;10.368;2023-07-29T14:47:40;2.95;;;1.35;;
75316;SDS011;63913;51.492;10.368;2023-07-29T14:50:05;1.30;;;1.20;;
75316;SDS011;63913;51.492;10.368;2023-07-29T14:52:31;2.05;;;1.35;;
75316;SDS011;63913;51.492;10.368;2023-07-29T14:54:56;1.90;;;1.20;;
75316;SDS011;63913;51.492;10.368;2023-07-29T14:57:22;1.33;;;1.08;;
75316;SDS011;63913;51.492;10.368;2023-07-29T14:59:47;1.77;;;1.10;;